Time;durP1;ratioP1;P1;durP2;ratioP2;P2;SDS_P1;SDS_P2;PMS_P1;PMS_P2;Temp;Humidity;BMP_temperature;BMP_pressure;BME280_temperature;BME280_humidity;BME280_pressure;Samples;Min_cycle;Max_cycle;Signal;HPM_P1;HPM_P2
2022/11/20 00:02:12;;;;;;;21.63;14.63;;;;;;;7.47;52.88;99325.41;10479177;28;20318;-70
2022/11/20 00:07:13;;;;;;;20.87;14.20;;;;;;;7.52;53.67;99324.88;10477005;28;20234;-72
2022/11/20 00:12:15;;;;;;;19.77;13.60;;;;;;;7.88;52.29;99332.31;10478137;28;20273;-72
2022/11/20 00:17:17;;;;;;;19.33;13.70;;;;;;;10.11;48.42;99302.88;10487793;28;20227;-69
2022/11/20 00:22:19;;;;;;;18.80;13.57;;;;;;;9.57;49.60;99356.78;10483956;28;20845;-69
2022/11/20 00:27:20;;;;;;;18.77;13.40;;;;;;;10.69;48.10;99301.81;10476946;28;20234;-70
2022/11/20 00:32:22;;;;;;;16.47;11.73;;;;;;;9.98;48.77;99356.22;10477544;28;20232;-71
2022/11/20 00:37:24;;;;;;;14.60;10.97;;;;;;;9.30;50.59;99377.81;10477272;28;20703;-71
2022/11/20 00:42:25;;;;;;;17.17;11.10;;;;;;;11.20;47.57;99317.56;10476550;28;21000;-72
2022/11/20 00:47:27;;;;;;;13.47;9.67;;;;;;;11.21;47.10;99350.53;10478058;28;20239;-72
2022/11/20 00:52:29;;;;;;;11.83;9.17;;;;;;;8.16;52.77;99329.13;10483382;28;20239;-72
2022/11/20 00:57:31;;;;;;;11.77;9.30;;;;;;;8.42;53.62;99334.03;10481410;28;20723;-74
2022/11/20 01:02:32;;;;;;;10.80;8.03;;;;;;;7.18;56.99;99268.34;10482879;28;20933;-74
2022/11/20 01:07:34;;;;;;;11.13;7.87;;;;;;;8.05;55.01;99296.56;10475799;28;20749;-71
2022/11/20 01:12:36;;;;;;;11.37;8.10;;;;;;;8.93;53.61;99283.53;10483849;28;20235;-69
2022/11/20 01:17:37;;;;;;;13.77;8.80;;;;;;;9.27;52.55;99286.59;10472378;28;20231;-68
2022/11/20 01:22:39;;;;;;;11.57;8.27;;;;;;;9.15;52.71;99281.72;10478038;28;20235;-68
2022/11/20 01:27:40;;;;;;;10.60;7.37;;;;;;;8.69;53.76;99287.28;10482260;28;20598;-69
2022/11/20 01:32:42;;;;;;;10.63;7.20;;;;;;;8.33;53.59;99293.31;10477853;28;20232;-69
2022/11/20 01:37:44;;;;;;;9.57;7.30;;;;;;;8.95;53.40;99272.66;10472850;28;20290;-68
2022/11/20 01:48:20;;;;;;;10.40;6.17;;;;;;;7.41;57.00;99248.06;10478465;28;20231;-67
2022/11/20 01:53:27;;;;;;;9.13;6.50;;;;;;;8.64;53.80;99258.50;10477282;28;20234;-69
2022/11/20 01:58:33;;;;;;;8.33;5.90;;;;;;;8.25;53.48;99270.25;10478693;28;20238;-68
2022/11/20 02:03:36;;;;;;;7.73;6.27;;;;;;;8.21;53.89;99274.25;10473517;28;20244;-68
2022/11/20 02:08:37;;;;;;;9.47;6.77;;;;;;;8.23;53.96;99266.09;10473627;28;20319;-70
2022/11/20 02:13:42;;;;;;;6.93;5.80;;;;;;;7.35;55.80;99242.44;10482182;28;20304;-71
2022/11/20 02:18:45;;;;;;;8.13;6.43;;;;;;;7.94;54.60;99250.88;10479282;28;20234;-68
2022/11/20 02:23:53;;;;;;;7.63;5.60;;;;;;;8.92;52.90;99235.69;10476837;28;20235;-68
2022/11/20 02:28:55;;;;;;;8.17;5.77;;;;;;;9.23;52.20;99232.75;10436017;28;20734;-68
2022/11/20 02:33:57;;;;;;;8.33;6.23;;;;;;;8.19;53.47;99284.28;10479030;28;20313;-68
2022/11/20 02:38:59;;;;;;;8.00;5.73;;;;;;;9.07;53.01;99257.00;10476114;28;20215;-68
2022/11/20 02:44:02;;;;;;;6.20;5.20;;;;;;;9.09;52.39;99261.13;10470683;28;20687;-67
2022/11/20 02:49:04;;;;;;;9.00;6.77;;;;;;;9.29;52.23;99257.88;10472871;28;20211;-68
2022/11/20 02:54:06;;;;;;;9.43;6.50;;;;;;;8.85;53.00;99275.59;10475549;28;20549;-69
2022/11/20 02:59:08;;;;;;;8.93;6.53;;;;;;;8.97;51.88;99295.47;10473878;28;20203;-69
2022/11/20 03:04:09;;;;;;;8.43;6.27;;;;;;;8.87;52.79;99307.44;10471242;28;20242;-69
2022/11/20 03:09:11;;;;;;;8.37;6.17;;;;;;;8.28;53.98;99290.34;10474084;28;20231;-68
2022/11/20 03:14:14;;;;;;;7.93;6.23;;;;;;;7.95;55.24;99271.16;10473852;28;20703;-68
2022/11/20 03:19:15;;;;;;;7.93;5.90;;;;;;;7.18;56.35;99252.38;10468737;28;20235;-68
2022/11/20 03:24:17;;;;;;;6.40;5.20;;;;;;;8.36;54.89;99238.81;10477020;28;20239;-68
2022/11/20 03:29:19;;;;;;;8.13;6.53;;;;;;;9.00;53.44;99232.91;10473548;28;20234;-68
2022/11/20 03:34:21;;;;;;;9.13;6.77;;;;;;;8.22;55.18;99257.28;10472708;28;20227;-69
2022/11/20 03:39:22;;;;;;;7.10;5.27;;;;;;;8.05;55.37;99258.41;10471486;28;20647;-68
2022/11/20 03:44:25;;;;;;;8.37;5.53;;;;;;;7.49;55.37;99258.66;10471025;28;20984;-68
2022/11/20 03:49:26;;;;;;;8.83;6.03;;;;;;;8.34;55.03;99231.00;10484100;28;20239;-67
2022/11/20 03:54:28;;;;;;;8.03;6.47;;;;;;;8.62;54.28;99222.34;10478331;28;20227;-68
2022/11/20 03:59:29;;;;;;;7.87;5.80;;;;;;;8.06;55.43;99244.91;10481574;28;20231;-68
2022/11/20 04:04:31;;;;;;;11.10;6.10;;;;;;;8.33;54.43;99240.00;10475023;28;20243;-68
2022/11/20 04:09:33;;;;;;;5.90;5.30;;;;;;;7.19;55.34;99245.25;10476210;28;20247;-69
2022/11/20 04:14:34;;;;;;;6.13;5.17;;;;;;;7.58;56.11;99249.63;10487294;28;20227;-69
2022/11/20 04:19:36;;;;;;;7.33;5.27;;;;;;;8.72;54.25;99214.88;10491256;28;20226;-69
2022/11/20 04:24:37;;;;;;;7.27;5.70;;;;;;;8.59;53.40;99239.56;10479301;28;20715;-68
2022/11/20 04:29:39;;;;;;;9.03;6.00;;;;;;;9.03;52.70;99211.19;10479581;28;20241;-69
2022/11/20 04:34:41;;;;;;;7.97;5.73;;;;;;;7.99;54.73;99238.66;10479921;28;20230;-69
2022/11/20 04:39:42;;;;;;;6.60;5.07;;;;;;;8.20;53.43;99267.28;10481513;28;20226;-68
2022/11/20 04:44:44;;;;;;;6.10;4.73;;;;;;;8.31;53.92;99258.00;10478939;28;20284;-68
2022/11/20 04:49:46;;;;;;;6.87;4.83;;;;;;;8.39;53.62;99249.13;10474687;28;20223;-69
2022/11/20 04:54:47;;;;;;;6.63;5.00;;;;;;;8.76;53.43;99231.34;10471084;28;20231;-68
2022/11/20 04:59:49;;;;;;;5.57;5.07;;;;;;;6.84;55.58;99242.09;10480280;28;20219;-68
2022/11/20 05:04:51;;;;;;;5.53;4.77;;;;;;;8.10;53.91;99253.41;10471585;28;20238;-68
2022/11/20 05:09:52;;;;;;;4.77;4.00;;;;;;;8.03;53.80;99271.94;10475757;28;20231;-68
2022/11/20 05:14:54;;;;;;;6.20;5.00;;;;;;;8.65;52.82;99246.78;10476015;28;20230;-69
2022/11/20 05:19:55;;;;;;;6.07;4.47;;;;;;;8.80;52.94;99238.78;10480998;28;20281;-69
2022/11/20 05:24:57;;;;;;;5.40;4.67;;;;;;;8.55;53.70;99242.75;10471442;28;20228;-68
2022/11/20 05:29:59;;;;;;;6.03;4.70;;;;;;;8.66;53.43;99235.13;10479571;28;20242;-67
2022/11/20 05:35:00;;;;;;;6.03;4.80;;;;;;;8.39;53.92;99254.44;10473148;28;20246;-70
2022/11/20 05:40:02;;;;;;;6.07;4.53;;;;;;;9.01;52.54;99243.38;10478769;28;20232;-68
2022/11/20 05:45:05;;;;;;;5.40;4.33;;;;;;;7.88;54.21;99271.06;10479809;28;20231;-69
2022/11/20 05:50:07;;;;;;;6.80;4.60;;;;;;;7.96;55.49;99235.53;10473683;28;20296;-70
2022/11/20 05:55:09;;;;;;;5.40;4.40;;;;;;;9.24;53.14;99196.19;10474335;28;20223;-67
2022/11/20 06:00:11;;;;;;;6.10;4.60;;;;;;;8.82;53.64;99212.72;10477773;28;20572;-69
2022/11/20 06:05:13;;;;;;;7.30;4.70;;;;;;;9.67;52.26;99207.69;10480259;28;20230;-68
2022/11/20 06:10:15;;;;;;;5.60;4.90;;;;;;;7.86;54.94;99270.41;10467948;28;20714;-67
2022/11/20 06:15:16;;;;;;;6.37;4.60;;;;;;;8.95;53.63;99222.78;10473511;28;20726;-68
2022/11/20 06:20:18;;;;;;;5.33;4.10;;;;;;;7.69;55.01;99269.69;10481935;28;20284;-68
2022/11/20 06:25:19;;;;;;;5.13;4.37;;;;;;;8.59;53.66;99262.69;10482208;28;20268;-67
2022/11/20 06:30:21;;;;;;;6.47;4.40;;;;;;;9.14;53.04;99231.19;10475645;28;20235;-68
2022/11/20 06:35:23;;;;;;;4.67;4.27;;;;;;;8.11;54.63;99269.19;10477925;28;20219;-68
2022/11/20 06:40:24;;;;;;;5.20;4.50;;;;;;;7.91;54.32;99284.88;10476355;28;20235;-68
2022/11/20 06:45:26;;;;;;;4.63;4.23;;;;;;;7.81;55.27;99276.25;10477793;28;20715;-70
2022/11/20 06:50:28;;;;;;;6.73;4.50;;;;;;;9.03;53.36;99224.53;10472025;28;20231;-70
2022/11/20 06:55:31;;;;;;;5.47;4.60;;;;;;;8.55;54.29;99253.44;10463678;28;20289;-68
2022/11/20 07:00:32;;;;;;;5.70;4.83;;;;;;;8.29;53.61;99279.53;10470629;28;20235;-68
2022/11/20 07:05:35;;;;;;;7.53;4.90;;;;;;;8.96;54.08;99248.47;10476057;28;20305;-69
2022/11/20 07:10:37;;;;;;;4.87;4.23;;;;;;;7.44;55.14;99306.28;10473462;28;20622;-67
2022/11/20 07:15:38;;;;;;;5.73;5.00;;;;;;;8.83;53.84;99278.44;10480422;28;20227;-68
2022/11/20 07:20:40;;;;;;;4.90;4.40;;;;;;;9.46;52.61;99253.94;10471554;28;20244;-68
2022/11/20 07:25:41;;;;;;;5.07;4.03;;;;;;;8.09;54.42;99305.03;10483657;28;20241;-71
2022/11/20 07:30:49;;;;;;;4.30;3.90;;;;;;;8.58;54.45;99280.56;10484487;28;21086;-68
2022/11/20 07:35:51;;;;;;;4.57;4.10;;;;;;;8.62;53.33;99305.00;10479994;28;20243;-68
2022/11/20 07:40:57;;;;;;;6.20;4.13;;;;;;;8.40;55.26;99299.56;10482260;28;20239;-69
2022/11/20 07:45:59;;;;;;;5.10;4.00;;;;;;;8.81;54.20;99312.47;10476146;28;20236;-69
2022/11/20 07:51:01;;;;;;;4.37;3.90;;;;;;;9.45;52.85;99287.00;10472978;28;20232;-69
2022/11/20 07:56:03;;;;;;;4.57;4.17;;;;;;;8.84;54.61;99303.25;10485743;28;20611;-69
2022/11/20 08:01:06;;;;;;;6.10;4.13;;;;;;;7.87;56.42;99320.03;10479349;28;20239;-68
2022/11/20 08:06:09;;;;;;;4.23;3.83;;;;;;;8.64;55.03;99284.31;10475829;28;20228;-68
2022/11/20 08:16:30;;;;;;;5.43;4.10;;;;;;;8.61;54.78;99306.03;10480363;28;20234;-68
2022/11/20 08:21:32;;;;;;;5.03;4.10;;;;;;;9.40;53.71;99282.22;10485003;28;20235;-69
2022/11/20 08:26:39;;;;;;;5.23;3.77;;;;;;;8.80;54.58;99312.66;10489007;28;20281;-69
2022/11/20 08:31:41;;;;;;;5.37;4.13;;;;;;;8.89;55.38;99313.44;10486215;28;20280;-69
2022/11/20 08:36:43;;;;;;;4.70;4.17;;;;;;;8.16;56.31;99345.13;10475502;28;20237;-68
2022/11/20 08:41:44;;;;;;;4.37;3.97;;;;;;;8.33;56.11;99343.97;10481462;28;20745;-69
2022/11/20 08:46:46;;;;;;;4.60;4.20;;;;;;;9.59;53.34;99309.34;10481004;28;20918;-69
2022/11/20 08:51:51;;;;;;;7.03;4.47;;;;;;;8.38;55.95;99370.91;10481790;28;20251;-69
2022/11/20 08:56:53;;;;;;;5.20;3.93;;;;;;;7.98;57.87;99364.88;10480622;28;20220;-68
2022/11/20 09:01:54;;;;;;;6.90;5.37;;;;;;;9.74;53.51;99307.44;10478796;28;20232;-69
2022/11/20 09:06:56;;;;;;;6.43;4.43;;;;;;;8.16;57.50;99363.78;10475748;28;20238;-68
2022/11/20 09:11:58;;;;;;;6.13;5.03;;;;;;;10.02;53.71;99311.22;10480435;28;20227;-69
2022/11/20 09:17:00;;;;;;;5.80;5.13;;;;;;;9.20;55.25;99394.13;10482671;28;20215;-69
2022/11/20 09:22:01;;;;;;;5.97;4.63;;;;;;;8.26;55.53;99399.84;10472867;28;20239;-68
2022/11/20 09:27:04;;;;;;;6.93;4.83;;;;;;;9.26;55.39;99373.84;10470909;28;20231;-69
2022/11/20 09:32:06;;;;;;;7.97;5.70;;;;;;;9.92;53.80;99352.47;10480897;28;20253;-67
2022/11/20 09:37:08;;;;;;;8.10;5.50;;;;;;;9.81;55.77;99336.06;10481258;28;20222;-67
2022/11/20 09:42:19;;;;;;;8.30;5.53;;;;;;;10.17;53.69;99364.59;10472382;28;20596;-68
2022/11/20 09:48:00;;;;;;;9.50;6.40;;;;;;;9.62;54.31;99410.47;10466511;28;20257;-69
2022/11/20 09:53:30;;;;;;;11.27;6.53;;;;;;;9.13;55.78;99440.41;10471607;28;20365;-68
2022/11/20 09:58:52;;;;;;;7.70;5.80;;;;;;;9.53;55.33;99408.91;10473514;28;20234;-69
2022/11/20 10:04:16;;;;;;;8.30;6.97;;;;;;;9.45;55.01;99417.88;10462170;28;20314;-68
2022/11/20 10:09:28;;;;;;;8.60;6.83;;;;;;;10.93;51.87;99383.53;10475425;28;20231;-71
2022/11/20 10:14:30;;;;;;;8.93;6.13;;;;;;;9.87;54.17;99426.19;10473408;28;20239;-71
2022/11/20 10:19:56;;;;;;;10.47;6.17;;;;;;;10.12;54.14;99407.94;10469382;28;20231;-72
2022/11/20 10:25:19;;;;;;;6.27;5.30;;;;;;;10.37;53.02;99381.66;10470129;28;20228;-71
2022/11/20 10:30:24;;;;;;;10.67;5.67;;;;;;;9.68;53.90;99436.44;10480302;28;20228;-71
2022/11/20 10:35:38;;;;;;;10.67;5.90;;;;;;;11.34;50.94;99389.91;10460365;28;20226;-72
2022/11/20 10:40:50;;;;;;;10.47;5.50;;;;;;;10.80;51.54;99391.47;10474352;28;20763;-72
2022/11/20 10:46:40;;;;;;;6.77;4.80;;;;;;;10.91;50.86;99400.81;10469054;28;20233;-70
2022/11/20 10:52:20;;;;;;;6.47;4.37;;;;;;;10.50;52.04;99413.03;10328857;28;20291;-72
2022/11/20 10:57:59;;;;;;;6.87;4.50;;;;;;;11.04;50.15;99396.38;10462416;28;20224;-71
2022/11/20 11:06:18;;;;;;;6.23;4.37;;;;;;;7.82;59.20;99349.00;10498201;27;21039;-72
2022/11/20 11:11:27;;;;;;;5.87;4.00;;;;;;;7.15;58.22;99321.91;10424560;28;20297;-73
2022/11/20 11:16:29;;;;;;;5.23;4.33;;;;;;;8.03;57.50;99321.72;10432135;28;20231;-72
2022/11/20 11:21:31;;;;;;;5.47;4.13;;;;;;;8.02;56.23;99314.75;10446213;28;20711;-72
2022/11/20 11:26:32;;;;;;;6.53;3.63;;;;;;;7.77;56.15;99330.06;10431102;28;20243;-70
2022/11/20 11:31:35;;;;;;;5.57;4.03;;;;;;;7.83;55.06;99329.34;10471385;28;20303;-73
2022/11/20 11:36:37;;;;;;;6.30;3.93;;;;;;;9.24;53.84;99292.31;10509648;28;20235;-74
2022/11/20 11:41:39;;;;;;;4.07;3.27;;;;;;;8.20;54.41;99333.94;10503116;28;20235;-75
2022/11/20 11:46:53;;;;;;;7.97;3.90;;;;;;;8.56;53.76;99311.91;10501436;28;20246;-74
2022/11/20 11:52:18;;;;;;;8.30;3.80;;;;;;;8.27;52.75;99329.53;10503538;28;20620;-70
2022/11/20 11:57:22;;;;;;;8.03;4.07;;;;;;;8.45;52.12;99313.22;10508697;28;20279;-69
2022/11/20 12:02:36;;;;;;;4.33;3.53;;;;;;;9.15;51.33;99302.28;10507743;28;20734;-72
2022/11/20 12:07:45;;;;;;;5.47;3.80;;;;;;;9.24;50.46;99303.00;10482725;28;20242;-72
2022/11/20 12:12:54;;;;;;;6.10;3.77;;;;;;;9.61;50.41;99322.50;10508103;28;20234;-71
2022/11/20 12:17:56;;;;;;;8.17;3.23;;;;;;;8.07;51.34;99339.84;10484701;28;20585;-72
2022/11/20 12:23:25;;;;;;;9.47;3.70;;;;;;;8.67;50.21;99345.31;10478408;28;20260;-73
2022/11/20 12:28:45;;;;;;;6.07;3.33;;;;;;;8.67;49.98;99361.31;10476518;28;20263;-74
2022/11/20 12:33:49;;;;;;;4.00;2.70;;;;;;;8.23;49.74;99364.72;10478213;28;21018;-70
2022/11/20 12:38:51;;;;;;;4.30;2.97;;;;;;;8.38;49.11;99351.44;10477850;28;20243;-69
2022/11/20 12:50:02;;;;;;;5.30;3.53;;;;;;;9.11;49.18;99343.69;10475640;28;20300;-71
2022/11/20 12:55:31;;;;;;;6.67;3.60;;;;;;;9.05;48.23;99341.78;10475162;28;20226;-69
2022/11/20 13:00:34;;;;;;;4.67;2.40;;;;;;;9.30;47.43;99344.94;10478752;28;20243;-70
2022/11/20 13:05:58;;;;;;;3.30;2.73;;;;;;;8.82;47.26;99370.16;10478335;28;20621;-71
2022/11/20 13:11:08;;;;;;;5.57;3.37;;;;;;;7.97;48.00;99391.75;10477012;28;20232;-72
2022/11/20 13:16:13;;;;;;;4.53;3.50;;;;;;;8.11;47.12;99399.78;10477413;28;20250;-69
2022/11/20 13:21:18;;;;;;;5.77;2.50;;;;;;;8.37;48.69;99382.59;10482387;28;20265;-66
2022/11/20 13:26:22;;;;;;;6.50;3.47;;;;;;;8.02;48.16;99378.72;10472696;28;20241;-69
2022/11/20 13:31:32;;;;;;;4.53;2.97;;;;;;;8.81;48.05;99363.16;10477951;28;20265;-68
2022/11/20 13:36:36;;;;;;;4.30;3.33;;;;;;;8.96;47.59;99355.22;10470861;28;20723;-69
2022/11/20 13:41:39;;;;;;;5.63;3.90;;;;;;;8.82;47.76;99372.00;10472504;28;20243;-65
2022/11/20 13:46:44;;;;;;;6.53;3.70;;;;;;;8.44;47.89;99375.53;10469489;28;20297;-69
2022/11/20 13:51:51;;;;;;;5.10;3.90;;;;;;;8.19;47.24;99374.09;10476064;28;20228;-68
2022/11/20 13:57:21;;;;;;;4.63;2.60;;;;;;;8.20;47.87;99373.91;10467631;28;20242;-69
2022/11/20 14:02:26;;;;;;;4.93;2.80;;;;;;;8.20;47.70;99362.41;10479092;28;20227;-69
2022/11/20 14:07:49;;;;;;;4.77;3.20;;;;;;;7.99;47.82;99355.91;10477990;28;20239;-69
2022/11/20 14:12:51;;;;;;;3.70;2.93;;;;;;;7.97;48.07;99354.44;10476482;28;20264;-69
2022/11/20 14:17:53;;;;;;;5.10;3.47;;;;;;;7.42;48.66;99329.59;10471453;28;20280;-70
2022/11/20 14:22:55;;;;;;;4.97;3.90;;;;;;;8.34;47.97;99329.63;10477843;28;20229;-67
2022/11/20 14:27:59;;;;;;;3.73;2.60;;;;;;;8.56;47.67;99305.78;10470334;28;20231;-65
2022/11/20 14:33:03;;;;;;;7.67;5.60;;;;;;;7.66;48.92;99316.16;10476375;28;20250;-66
2022/11/20 14:38:13;;;;;;;3.67;3.30;;;;;;;7.50;48.46;99306.41;10477532;28;20229;-69
2022/11/20 14:43:19;;;;;;;5.97;3.10;;;;;;;6.76;49.63;99282.00;10455834;28;20235;-68
2022/11/20 14:48:28;;;;;;;3.77;2.73;;;;;;;7.36;49.19;99292.03;10472679;28;20227;-68
2022/11/20 14:53:29;;;;;;;3.27;2.97;;;;;;;8.01;48.56;99294.44;10472348;28;20242;-68
2022/11/20 14:58:33;;;;;;;4.07;2.90;;;;;;;7.95;49.05;99273.84;10473946;28;20709;-66
2022/11/20 15:03:37;;;;;;;5.67;2.60;;;;;;;8.05;48.27;99267.25;10477898;28;20228;-66
2022/11/20 15:08:50;;;;;;;3.77;2.50;;;;;;;8.15;48.26;99258.16;10466069;28;20232;-71
2022/11/20 15:13:52;;;;;;;5.37;3.87;;;;;;;8.45;48.27;99257.22;10467549;28;20235;-68
2022/11/20 15:18:55;;;;;;;3.60;2.70;;;;;;;7.73;48.51;99286.97;10470495;28;20650;-69
2022/11/20 15:23:57;;;;;;;3.57;2.60;;;;;;;8.37;48.01;99272.44;10474921;28;20238;-70
2022/11/20 15:28:58;;;;;;;5.07;3.00;;;;;;;8.13;48.50;99269.00;10475167;28;20223;-69
2022/11/20 15:34:00;;;;;;;2.97;2.63;;;;;;;8.69;47.89;99252.63;10480307;28;20231;-64
2022/11/20 15:39:02;;;;;;;11.17;3.40;;;;;;;7.78;48.38;99273.97;10467797;28;20239;-65
2022/11/20 15:44:04;;;;;;;3.53;3.23;;;;;;;8.04;48.30;99276.25;10469432;28;20234;-67
2022/11/20 15:49:12;;;;;;;6.50;2.57;;;;;;;7.89;48.46;99267.41;10474940;28;20289;-65
2022/11/20 15:54:17;;;;;;;5.87;2.77;;;;;;;8.58;48.22;99237.06;10476789;28;20237;-66
2022/11/20 15:59:19;;;;;;;3.27;2.47;;;;;;;8.00;49.17;99261.66;10481256;28;20227;-67
2022/11/20 16:04:22;;;;;;;3.80;2.90;;;;;;;7.94;48.31;99241.03;10491246;28;20229;-67
2022/11/20 16:09:24;;;;;;;4.07;3.00;;;;;;;8.62;48.19;99230.34;10479102;28;20237;-68
2022/11/20 16:19:47;;;;;;;4.33;3.10;;;;;;;7.18;49.84;99225.75;10474968;28;20711;-67
2022/11/20 16:24:48;;;;;;;3.40;3.10;;;;;;;8.42;48.15;99214.06;10475488;28;20242;-67
2022/11/20 16:29:50;;;;;;;4.57;2.60;;;;;;;8.00;48.87;99207.50;10477175;28;20287;-66
2022/11/20 16:34:53;;;;;;;4.77;2.83;;;;;;;7.85;48.95;99199.50;10480748;28;20231;-68
2022/11/20 16:39:56;;;;;;;3.83;2.70;;;;;;;7.87;49.06;99189.50;10479605;28;20269;-67
2022/11/20 16:44:57;;;;;;;3.80;2.90;;;;;;;8.09;47.76;99175.28;10485984;28;20323;-69
2022/11/20 16:50:00;;;;;;;3.87;2.93;;;;;;;7.99;48.49;99173.91;10482557;28;20223;-68
2022/11/20 16:55:02;;;;;;;2.87;2.37;;;;;;;8.11;48.00;99178.56;10477668;28;20266;-66
2022/11/20 17:00:07;;;;;;;4.30;2.70;;;;;;;7.64;49.44;99182.31;10461124;28;20595;-71
2022/11/20 17:05:08;;;;;;;6.07;2.87;;;;;;;6.58;51.56;99149.25;10476563;28;20239;-71
2022/11/20 17:10:10;;;;;;;2.97;2.50;;;;;;;7.47;50.64;99152.34;10476834;28;20723;-69
2022/11/20 17:15:12;;;;;;;2.30;2.10;;;;;;;6.02;52.36;99112.13;10475224;28;20244;-68
2022/11/20 17:20:13;;;;;;;4.77;3.10;;;;;;;7.48;50.51;99113.28;10482213;28;20236;-68
2022/11/20 17:25:15;;;;;;;3.33;2.60;;;;;;;7.26;50.91;99121.09;10473838;28;20567;-68
2022/11/20 17:30:17;;;;;;;3.20;2.90;;;;;;;8.46;49.09;99082.03;10482071;28;20294;-68
2022/11/20 17:35:19;;;;;;;4.70;2.50;;;;;;;7.97;49.33;99122.63;10478647;28;20242;-68
2022/11/20 17:40:22;;;;;;;3.87;2.27;;;;;;;7.74;50.82;99116.31;10476003;28;20247;-69
2022/11/20 17:45:28;;;;;;;2.93;2.70;;;;;;;8.92;49.67;99073.72;10471939;28;20267;-69
2022/11/20 17:50:29;;;;;;;4.30;3.00;;;;;;;8.16;51.38;99100.75;10473282;28;20234;-68
2022/11/20 17:57:51;;;;;;;4.80;3.10;;;;;;;6.23;53.98;99088.47;10472324;28;20230;-65
2022/11/20 18:01:03;;;;;;;3.63;2.70;;;;;;;7.54;52.73;99089.41;10475010;28;20310;-67
2022/11/20 18:06:13;;;;;;;5.10;3.50;;;;;;;7.82;52.80;99095.97;10477253;28;20224;-69
2022/11/20 18:11:15;;;;;;;4.13;2.90;;;;;;;6.41;55.45;99074.09;10474135;28;20244;-69
2022/11/20 18:16:17;;;;;;;3.20;2.90;;;;;;;6.67;55.79;99076.44;10476207;28;20246;-67
2022/11/20 18:21:18;;;;;;;5.13;3.80;;;;;;;6.37;56.08;99059.50;10481723;28;20243;-67
2022/11/20 18:26:20;;;;;;;2.93;2.73;;;;;;;6.60;55.98;99039.09;10477721;28;20309;-66
2022/11/20 18:31:22;;;;;;;4.80;3.23;;;;;;;6.61;55.68;99038.06;10480276;28;20238;-67
2022/11/20 18:36:27;;;;;;;3.43;3.13;;;;;;;7.10;55.82;99022.78;10472590;28;20916;-67
2022/11/20 18:46:50;;;;;;;2.77;2.50;;;;;;;6.35;57.15;98985.28;10479033;28;20230;-68
2022/11/20 18:51:52;;;;;;;3.70;3.10;;;;;;;6.24;56.94;98977.69;10468806;28;20261;-69
2022/11/20 18:56:54;;;;;;;4.90;2.60;;;;;;;6.86;56.10;98960.81;10473608;28;20715;-68
2022/11/20 19:01:55;;;;;;;4.00;3.00;;;;;;;6.70;56.45;98966.25;10477357;28;20270;-68
2022/11/20 19:06:57;;;;;;;3.80;2.83;;;;;;;6.88;56.18;98948.16;10474545;28;20245;-68
2022/11/20 19:12:04;;;;;;;4.70;2.90;;;;;;;7.09;56.42;98942.16;10477402;28;20231;-70
2022/11/20 19:17:06;;;;;;;3.37;2.97;;;;;;;6.73;57.15;98964.03;10469708;28;20223;-69
2022/11/20 19:22:08;;;;;;;4.20;3.10;;;;;;;7.07;56.57;98928.22;10473774;28;20246;-69
2022/11/20 19:27:10;;;;;;;4.27;3.57;;;;;;;6.89;56.55;98949.00;10447742;28;20725;-70
2022/11/20 19:32:11;;;;;;;4.07;3.40;;;;;;;6.15;57.55;98939.75;10478586;28;20753;-67
2022/11/20 19:37:13;;;;;;;5.07;3.00;;;;;;;6.14;57.91;98938.06;10479195;28;20223;-69
2022/11/20 19:42:14;;;;;;;4.47;2.80;;;;;;;5.95;58.08;98944.66;10478254;28;20230;-69
2022/11/20 19:47:16;;;;;;;4.70;3.17;;;;;;;6.16;58.10;98936.09;10483546;28;20239;-70
2022/11/20 19:52:18;;;;;;;3.00;2.80;;;;;;;6.83;57.08;98907.97;10485067;28;20235;-72
2022/11/20 19:57:19;;;;;;;2.80;2.60;;;;;;;6.18;58.65;98909.34;10472665;28;20227;-68
2022/11/20 20:02:21;;;;;;;2.93;2.73;;;;;;;5.96;58.98;98914.47;10479080;28;20264;-69
2022/11/20 20:07:22;;;;;;;2.83;2.50;;;;;;;6.13;57.94;98917.03;10486803;28;20281;-69
2022/11/20 20:12:24;;;;;;;2.23;2.13;;;;;;;4.29;61.65;98893.97;10482353;28;20238;-69
2022/11/20 20:17:26;;;;;;;2.70;2.47;;;;;;;6.52;58.02;98913.41;10477331;28;20227;-69
2022/11/20 20:22:27;;;;;;;2.57;2.37;;;;;;;6.89;56.69;98925.06;10422444;28;20262;-69
2022/11/20 20:27:30;;;;;;;2.70;2.60;;;;;;;7.47;55.50;98923.41;10483747;28;20238;-70
2022/11/20 20:32:33;;;;;;;2.40;2.20;;;;;;;6.53;56.33;98984.16;10479601;28;20696;-69
2022/11/20 20:37:35;;;;;;;2.50;2.40;;;;;;;6.42;58.02;98950.84;10477309;28;20207;-68
2022/11/20 20:42:36;;;;;;;3.30;3.00;;;;;;;7.21;55.56;98939.00;10478949;28;20751;-71
2022/11/20 20:47:40;;;;;;;2.80;2.60;;;;;;;6.60;56.36;98985.13;10475242;28;20241;-69
2022/11/20 20:52:42;;;;;;;3.37;2.50;;;;;;;7.61;54.90;98940.41;10480547;28;20226;-68
2022/11/20 20:57:44;;;;;;;3.30;2.50;;;;;;;6.31;56.64;99009.72;10460652;28;20227;-69
2022/11/20 21:02:45;;;;;;;2.50;2.40;;;;;;;6.30;57.39;99016.03;10482936;28;20720;-70
2022/11/20 21:13:07;;;;;;;2.30;2.20;;;;;;;7.26;55.63;98966.75;10449599;28;20235;-68
2022/11/20 21:18:09;;;;;;;2.27;2.10;;;;;;;6.97;56.44;98971.03;10454392;28;20207;-67
2022/11/20 21:23:10;;;;;;;2.00;1.90;;;;;;;5.05;59.09;98998.84;10454233;28;20322;-68
2022/11/20 21:28:13;;;;;;;2.27;2.17;;;;;;;6.32;57.47;99008.72;10456335;28;20691;-69
2022/11/20 21:33:18;;;;;;;2.30;2.20;;;;;;;7.02;56.91;98974.97;10463588;28;20311;-68
2022/11/20 21:38:20;;;;;;;2.27;2.17;;;;;;;7.22;56.36;98969.94;10464663;28;20696;-67
2022/11/20 21:43:21;;;;;;;2.23;2.03;;;;;;;7.24;55.85;98978.56;10469331;28;20235;-68
2022/11/20 21:48:27;;;;;;;2.33;2.10;;;;;;;7.99;54.48;98972.22;10475185;28;20372;-67
2022/11/20 21:53:30;;;;;;;3.67;2.30;;;;;;;8.11;53.82;98996.53;10476864;28;20235;-67
2022/11/20 21:58:33;;;;;;;3.90;2.63;;;;;;;7.30;54.99;99039.06;10475479;28;20246;-67
2022/11/20 22:03:36;;;;;;;3.53;2.50;;;;;;;7.84;54.39;99004.22;10475259;28;20231;-68
2022/11/20 22:08:38;;;;;;;2.80;2.00;;;;;;;5.91;57.98;99057.56;10474630;28;20226;-68
2022/11/20 22:19:00;;;;;;;3.03;2.20;;;;;;;7.48;55.16;99028.09;10479834;28;20227;-67
2022/11/20 22:24:02;;;;;;;2.67;2.47;;;;;;;8.08;54.40;99004.91;10479422;28;20775;-68
2022/11/20 22:29:04;;;;;;;5.27;2.77;;;;;;;6.81;55.94;99056.25;10474197;28;20230;-70
2022/11/20 22:34:05;;;;;;;2.80;2.40;;;;;;;6.04;58.52;99046.38;10478089;28;20223;-67
2022/11/20 22:39:07;;;;;;;2.53;2.33;;;;;;;6.19;58.49;99036.66;10473941;28;20715;-67
2022/11/20 22:44:13;;;;;;;3.80;2.73;;;;;;;6.95;57.61;98989.00;10471307;28;20256;-68
2022/11/20 22:49:14;;;;;;;2.90;2.70;;;;;;;5.68;60.47;99001.72;10475512;28;20237;-68
2022/11/20 22:54:16;;;;;;;2.17;2.07;;;;;;;5.58;60.63;99011.69;10478270;28;20228;-67
2022/11/20 22:59:18;;;;;;;3.93;2.90;;;;;;;6.24;58.66;99018.41;10470232;28;20234;-66
2022/11/20 23:04:19;;;;;;;3.00;2.80;;;;;;;7.53;56.99;98965.28;10473342;28;20231;-68
2022/11/20 23:09:21;;;;;;;3.00;2.60;;;;;;;7.18;56.11;98975.63;10478108;28;20237;-67
2022/11/20 23:14:23;;;;;;;2.80;2.60;;;;;;;7.30;56.37;99007.94;10469577;28;20231;-68
2022/11/20 23:19:28;;;;;;;3.93;2.80;;;;;;;7.06;56.92;99009.00;10472700;28;20759;-66
2022/11/20 23:24:30;;;;;;;5.93;3.20;;;;;;;7.03;58.24;98993.41;10451586;28;20257;-67
2022/11/20 23:29:31;;;;;;;2.80;2.57;;;;;;;7.10;57.87;98986.34;10446399;28;20266;-69
2022/11/20 23:34:33;;;;;;;2.20;2.10;;;;;;;5.62;60.30;99028.94;10467802;28;20350;-66
2022/11/20 23:39:35;;;;;;;6.03;2.90;;;;;;;6.13;59.50;99018.78;10480819;28;20607;-67
2022/11/20 23:44:36;;;;;;;2.67;2.47;;;;;;;7.11;58.00;98971.22;10479946;28;20610;-66
2022/11/20 23:49:38;;;;;;;3.07;2.70;;;;;;;8.00;56.47;98955.25;10470798;28;20207;-69
2022/11/20 23:54:39;;;;;;;3.43;2.27;;;;;;;7.36;56.97;98969.97;10475811;28;20223;-69
2022/11/20 23:59:41;;;;;;;2.57;2.37;;;;;;;7.06;57.19;98995.72;10471075;28;20200;-68
